SAS930 KATL-EKCH
Flight info
| Callsign | SAS930 |
|---|---|
| Flight time | N/A |
| Altitude | 37000 |
| Route | PHIIL3 HRTWL Q64 TYI DCT ORF AR9 ZIBUT DCT LARGE DCT JENYY DCT DOVEY/M085F370 DCT NOVOK DCT CARAC/N0493F390 DCT PORTI/M085F400 DCT 47N050W 49N040W 51N030W 53N020W DCT MALOT DCT GISTI/N0489F410 DCT MOLAK DCT MAC DCT NORBO DCT TLA DCT ROBEM DCT ERLOT DCT SURAT DCT PETIL DCT TESPI |
| Aircraft | A359/H-SDE2E3GHIJ3J4J5LM1ORWXY/LB1D1 |
Departure
| Time | N/A |
|---|---|
| Airport | Hartsfield Jackson Atlanta International Airport (KATL) |
Arrival
| Time | 2026-05-05 20:36 |
|---|---|
| Airport | Copenhagen Kastrup Airport (EKCH) |
| Time | Latitude | Longitude | Altitude | Speed | Heading |
|---|---|---|---|---|---|
| 2026-05-05 17:05 | 50.37287 | -33.73260 | 40188 ft | 532 kts | 73° |
| 2026-05-05 17:05 | 50.38322 | -33.67694 | 40182 ft | 532 kts | 73° |
| 2026-05-05 17:05 | 50.40382 | -33.56574 | 40183 ft | 531 kts | 73° |
| 2026-05-05 17:06 | 50.42431 | -33.45451 | 40182 ft | 531 kts | 73° |
| 2026-05-05 17:06 | 50.44470 | -33.34311 | 40181 ft | 531 kts | 73° |
| 2026-05-05 17:07 | 50.46498 | -33.23167 | 40187 ft | 530 kts | 73° |
| 2026-05-05 17:07 | 50.48508 | -33.12057 | 40192 ft | 528 kts | 73° |
| 2026-05-05 17:08 | 50.50504 | -33.00953 | 40192 ft | 528 kts | 73° |
| 2026-05-05 17:08 | 50.52490 | -32.89840 | 40195 ft | 528 kts | 74° |
| 2026-05-05 17:09 | 50.54463 | -32.78724 | 40192 ft | 527 kts | 74° |
| 2026-05-05 17:09 | 50.56418 | -32.67647 | 40199 ft | 525 kts | 74° |
| 2026-05-05 17:10 | 50.58360 | -32.56572 | 40208 ft | 525 kts | 74° |
| 2026-05-05 17:10 | 50.60292 | -32.45492 | 40207 ft | 525 kts | 74° |
| 2026-05-05 17:11 | 50.62212 | -32.34403 | 40203 ft | 525 kts | 74° |
| 2026-05-05 17:11 | 50.64121 | -32.23310 | 40215 ft | 525 kts | 74° |
| 2026-05-05 17:12 | 50.66020 | -32.12207 | 40218 ft | 525 kts | 74° |
| 2026-05-05 17:12 | 50.67908 | -32.01097 | 40225 ft | 525 kts | 74° |
| 2026-05-05 17:13 | 50.69786 | -31.89974 | 40224 ft | 525 kts | 74° |
| 2026-05-05 17:13 | 50.71652 | -31.78850 | 40228 ft | 524 kts | 74° |
| 2026-05-05 17:14 | 50.73505 | -31.67733 | 40234 ft | 524 kts | 74° |
| 2026-05-05 17:14 | 50.75349 | -31.56597 | 40235 ft | 524 kts | 74° |
| 2026-05-05 17:15 | 50.77181 | -31.45452 | 40246 ft | 524 kts | 74° |
| 2026-05-05 17:15 | 50.79000 | -31.34321 | 40243 ft | 522 kts | 74° |
| 2026-05-05 17:16 | 50.80803 | -31.23221 | 40245 ft | 521 kts | 74° |
| 2026-05-05 17:16 | 50.82595 | -31.12107 | 40250 ft | 521 kts | 74° |
| 2026-05-05 17:17 | 50.84375 | -31.00996 | 40252 ft | 521 kts | 74° |
| 2026-05-05 17:17 | 50.86124 | -30.89999 | 40254 ft | 517 kts | 74° |
| 2026-05-05 17:18 | 50.87868 | -30.78970 | 40252 ft | 516 kts | 74° |
| 2026-05-05 17:18 | 50.89600 | -30.67940 | 40258 ft | 516 kts | 74° |
| 2026-05-05 17:19 | 50.91322 | -30.56900 | 40270 ft | 516 kts | 74° |
| 2026-05-05 17:19 | 50.93027 | -30.45894 | 40256 ft | 513 kts | 75° |
| 2026-05-05 17:20 | 50.94714 | -30.34925 | 40271 ft | 512 kts | 74° |
| 2026-05-05 17:20 | 50.96392 | -30.23946 | 40254 ft | 513 kts | 74° |
| 2026-05-05 17:21 | 50.98062 | -30.12944 | 40269 ft | 513 kts | 75° |
| 2026-05-05 17:22 | 51.00915 | -29.96617 | 40275 ft | 511 kts | 67° |
| 2026-05-05 17:22 | 51.03476 | -29.86104 | 40281 ft | 510 kts | 66° |
| 2026-05-05 17:23 | 51.06115 | -29.75641 | 40268 ft | 510 kts | 66° |
| 2026-05-05 17:23 | 51.08306 | -29.66938 | 40279 ft | 510 kts | 66° |
| 2026-05-05 17:24 | 51.10910 | -29.56498 | 40277 ft | 507 kts | 66° |
| 2026-05-05 17:24 | 51.13493 | -29.46064 | 40281 ft | 506 kts | 66° |
| 2026-05-05 17:25 | 51.16065 | -29.35622 | 40283 ft | 506 kts | 66° |
| 2026-05-05 17:25 | 51.18628 | -29.25165 | 40299 ft | 507 kts | 66° |
| 2026-05-05 17:26 | 51.21176 | -29.14721 | 40285 ft | 504 kts | 66° |
| 2026-05-05 17:26 | 51.23707 | -29.04296 | 40290 ft | 504 kts | 66° |
| 2026-05-05 17:27 | 51.26228 | -28.93863 | 40289 ft | 504 kts | 66° |
| 2026-05-05 17:27 | 51.28738 | -28.83430 | 40302 ft | 504 kts | 66° |
| 2026-05-05 17:28 | 51.31239 | -28.72980 | 40286 ft | 503 kts | 66° |
| 2026-05-05 17:28 | 51.33730 | -28.62525 | 40287 ft | 503 kts | 66° |
| 2026-05-05 17:29 | 51.36210 | -28.52063 | 40291 ft | 503 kts | 66° |
| 2026-05-05 17:29 | 51.38682 | -28.41587 | 40288 ft | 503 kts | 66° |
| 2026-05-05 17:30 | 51.41138 | -28.31119 | 40293 ft | 502 kts | 66° |
| 2026-05-05 17:30 | 51.43585 | -28.20647 | 40293 ft | 502 kts | 66° |
| 2026-05-05 17:31 | 51.46022 | -28.10168 | 40287 ft | 502 kts | 66° |
| 2026-05-05 17:31 | 51.48449 | -27.99677 | 40289 ft | 502 kts | 66° |
| 2026-05-05 17:32 | 51.50865 | -27.89179 | 40290 ft | 501 kts | 66° |
| 2026-05-05 17:32 | 51.53268 | -27.78687 | 40290 ft | 500 kts | 66° |
| 2026-05-05 17:33 | 51.55644 | -27.68270 | 40292 ft | 500 kts | 66° |
| 2026-05-05 17:33 | 51.58025 | -27.57772 | 40290 ft | 500 kts | 66° |
| 2026-05-05 17:34 | 51.60398 | -27.47257 | 40288 ft | 500 kts | 66° |
| 2026-05-05 17:34 | 51.62755 | -27.36759 | 40287 ft | 499 kts | 66° |
| 2026-05-05 17:35 | 51.65106 | -27.26240 | 40288 ft | 499 kts | 66° |
| 2026-05-05 17:35 | 51.67445 | -27.15718 | 40289 ft | 499 kts | 66° |
| 2026-05-05 17:36 | 51.69776 | -27.05180 | 40289 ft | 499 kts | 66° |
| 2026-05-05 17:36 | 51.72097 | -26.94635 | 40287 ft | 499 kts | 66° |
| 2026-05-05 17:37 | 51.74407 | -26.84088 | 40288 ft | 499 kts | 66° |
| 2026-05-05 17:37 | 51.76707 | -26.73530 | 40287 ft | 499 kts | 66° |
| 2026-05-05 17:38 | 51.79002 | -26.62941 | 40297 ft | 499 kts | 67° |
| 2026-05-05 17:38 | 51.81289 | -26.52337 | 40287 ft | 500 kts | 67° |
| 2026-05-05 17:39 | 51.83567 | -26.41714 | 40282 ft | 500 kts | 67° |
| 2026-05-05 17:39 | 51.85834 | -26.31087 | 40291 ft | 500 kts | 67° |
| 2026-05-05 17:40 | 51.88094 | -26.20439 | 40309 ft | 500 kts | 67° |
| 2026-05-05 17:40 | 51.90346 | -26.09772 | 40284 ft | 501 kts | 67° |
| 2026-05-05 17:41 | 51.92589 | -25.99096 | 40284 ft | 501 kts | 67° |
| 2026-05-05 17:41 | 51.94821 | -25.88411 | 40284 ft | 501 kts | 67° |
| 2026-05-05 17:42 | 51.97042 | -25.77720 | 40287 ft | 501 kts | 68° |
| 2026-05-05 17:42 | 51.99255 | -25.67016 | 40287 ft | 501 kts | 68° |
| 2026-05-05 17:43 | 52.01459 | -25.56293 | 40287 ft | 501 kts | 68° |
| 2026-05-05 17:43 | 52.03654 | -25.45559 | 40287 ft | 501 kts | 68° |
| 2026-05-05 17:44 | 52.05839 | -25.34814 | 40284 ft | 501 kts | 68° |
| 2026-05-05 17:44 | 52.08014 | -25.24059 | 40281 ft | 501 kts | 68° |
| 2026-05-05 17:45 | 52.10179 | -25.13297 | 40289 ft | 501 kts | 68° |
| 2026-05-05 17:45 | 52.12334 | -25.02523 | 40285 ft | 501 kts | 68° |
| 2026-05-05 17:46 | 52.14479 | -24.91738 | 40279 ft | 501 kts | 68° |
| 2026-05-05 17:46 | 52.16615 | -24.80944 | 40286 ft | 501 kts | 68° |
| 2026-05-05 17:47 | 52.18740 | -24.70143 | 40281 ft | 501 kts | 69° |
| 2026-05-05 17:47 | 52.20855 | -24.59330 | 40282 ft | 501 kts | 69° |
| 2026-05-05 17:48 | 52.22959 | -24.48512 | 40282 ft | 501 kts | 69° |
| 2026-05-05 17:48 | 52.25056 | -24.37673 | 40294 ft | 501 kts | 69° |
| 2026-05-05 17:49 | 52.27143 | -24.26823 | 40281 ft | 501 kts | 69° |
| 2026-05-05 17:49 | 52.29220 | -24.15961 | 40278 ft | 501 kts | 69° |
| 2026-05-05 17:50 | 52.31287 | -24.05090 | 40279 ft | 501 kts | 69° |
| 2026-05-05 17:50 | 52.33330 | -23.94280 | 40299 ft | 501 kts | 69° |
| 2026-05-05 17:51 | 52.35378 | -23.83389 | 40275 ft | 501 kts | 69° |
| 2026-05-05 17:51 | 52.37416 | -23.72482 | 40274 ft | 501 kts | 70° |
| 2026-05-05 17:52 | 52.39445 | -23.61556 | 40274 ft | 501 kts | 70° |
| 2026-05-05 17:52 | 52.41464 | -23.50627 | 40272 ft | 502 kts | 70° |
| 2026-05-05 17:53 | 52.43472 | -23.39689 | 40269 ft | 501 kts | 70° |
| 2026-05-05 17:53 | 52.45470 | -23.28739 | 40269 ft | 501 kts | 70° |
| 2026-05-05 17:54 | 52.47458 | -23.17781 | 40268 ft | 501 kts | 70° |
| 2026-05-05 17:54 | 52.49437 | -23.06806 | 40265 ft | 501 kts | 70° |
| 2026-05-05 17:55 | 52.51405 | -22.95825 | 40269 ft | 501 kts | 70° |
| 2026-05-05 17:55 | 52.53362 | -22.84842 | 40263 ft | 502 kts | 70° |
| 2026-05-05 17:56 | 52.55310 | -22.73839 | 40262 ft | 502 kts | 70° |
| 2026-05-05 17:56 | 52.57249 | -22.62824 | 40266 ft | 502 kts | 71° |
| 2026-05-05 17:57 | 52.59177 | -22.51797 | 40271 ft | 502 kts | 71° |
| 2026-05-05 17:57 | 52.61094 | -22.40769 | 40259 ft | 502 kts | 71° |
| 2026-05-05 17:58 | 52.63002 | -22.29722 | 40252 ft | 502 kts | 71° |
| 2026-05-05 17:58 | 52.64899 | -22.18670 | 40264 ft | 502 kts | 71° |
| 2026-05-05 17:59 | 52.66789 | -22.07595 | 40274 ft | 502 kts | 71° |
| 2026-05-05 17:59 | 52.68669 | -21.96501 | 40257 ft | 503 kts | 71° |
| 2026-05-05 18:00 | 52.70526 | -21.85473 | 40262 ft | 503 kts | 71° |
| 2026-05-05 18:00 | 52.72386 | -21.74360 | 40256 ft | 503 kts | 71° |
| 2026-05-05 18:01 | 52.74237 | -21.63230 | 40246 ft | 503 kts | 72° |
| 2026-05-05 18:01 | 52.76077 | -21.52092 | 40253 ft | 503 kts | 72° |
| 2026-05-05 18:02 | 52.77906 | -21.40944 | 40246 ft | 503 kts | 72° |
| 2026-05-05 18:02 | 52.79725 | -21.29787 | 40246 ft | 503 kts | 72° |
| 2026-05-05 18:03 | 52.81534 | -21.18621 | 40246 ft | 503 kts | 72° |
| 2026-05-05 18:03 | 52.83332 | -21.07444 | 40246 ft | 503 kts | 72° |
| 2026-05-05 18:04 | 52.85119 | -20.96261 | 40244 ft | 503 kts | 72° |
| 2026-05-05 18:04 | 52.86897 | -20.85063 | 40244 ft | 503 kts | 72° |
| 2026-05-05 18:05 | 52.88665 | -20.73853 | 40243 ft | 503 kts | 72° |
| 2026-05-05 18:05 | 52.90421 | -20.62640 | 40252 ft | 503 kts | 73° |
| 2026-05-05 18:06 | 52.92167 | -20.51413 | 40244 ft | 503 kts | 73° |
| 2026-05-05 18:06 | 52.93904 | -20.40170 | 40237 ft | 503 kts | 73° |
| 2026-05-05 18:07 | 52.95629 | -20.28927 | 40239 ft | 503 kts | 73° |
| 2026-05-05 18:07 | 52.97344 | -20.17666 | 40233 ft | 503 kts | 73° |
| 2026-05-05 18:08 | 52.99048 | -20.06405 | 40235 ft | 503 kts | 73° |
| 2026-05-05 18:08 | 52.99995 | -19.96854 | 40240 ft | 507 kts | 84° |
| 2026-05-05 18:09 | 53.00359 | -19.85167 | 40231 ft | 508 kts | 86° |
| 2026-05-05 18:09 | 53.00570 | -19.73453 | 40230 ft | 508 kts | 86° |
| 2026-05-05 18:10 | 53.00759 | -19.61720 | 40236 ft | 508 kts | 86° |
| 2026-05-05 18:10 | 53.00952 | -19.49997 | 40230 ft | 508 kts | 86° |
| 2026-05-05 18:11 | 53.01142 | -19.38279 | 40225 ft | 508 kts | 86° |
| 2026-05-05 18:11 | 53.01322 | -19.26555 | 40224 ft | 508 kts | 86° |
| 2026-05-05 18:12 | 53.01491 | -19.14833 | 40219 ft | 508 kts | 86° |
| 2026-05-05 18:12 | 53.01647 | -19.03109 | 40220 ft | 508 kts | 87° |
| 2026-05-05 18:13 | 53.01792 | -18.91385 | 40216 ft | 508 kts | 87° |
| 2026-05-05 18:13 | 53.01925 | -18.79664 | 40214 ft | 508 kts | 87° |
| 2026-05-05 18:14 | 53.02047 | -18.67943 | 40212 ft | 508 kts | 87° |
| 2026-05-05 18:14 | 53.02157 | -18.56292 | 40214 ft | 508 kts | 87° |
| 2026-05-05 18:15 | 53.02256 | -18.44559 | 40208 ft | 508 kts | 87° |
| 2026-05-05 18:15 | 53.02343 | -18.32833 | 40208 ft | 508 kts | 88° |
| 2026-05-05 18:16 | 53.02418 | -18.21098 | 40208 ft | 508 kts | 88° |
| 2026-05-05 18:16 | 53.02482 | -18.09355 | 40200 ft | 508 kts | 88° |
| 2026-05-05 18:17 | 53.02535 | -17.97620 | 40201 ft | 508 kts | 88° |
| 2026-05-05 18:17 | 53.02576 | -17.85890 | 40196 ft | 508 kts | 88° |
| 2026-05-05 18:18 | 53.02606 | -17.74145 | 40198 ft | 508 kts | 88° |
| 2026-05-05 18:18 | 53.02624 | -17.62400 | 40194 ft | 508 kts | 88° |
| 2026-05-05 18:19 | 53.02630 | -17.50656 | 40200 ft | 508 kts | 88° |
| 2026-05-05 18:19 | 53.02625 | -17.38922 | 40192 ft | 509 kts | 88° |
| 2026-05-05 18:20 | 53.02608 | -17.27172 | 40189 ft | 509 kts | 89° |
| 2026-05-05 18:20 | 53.02580 | -17.15422 | 40190 ft | 509 kts | 89° |
| 2026-05-05 18:21 | 53.02540 | -17.03671 | 40188 ft | 509 kts | 89° |
| 2026-05-05 18:21 | 53.02489 | -16.91918 | 40187 ft | 509 kts | 89° |
| 2026-05-05 18:22 | 53.02426 | -16.80235 | 40183 ft | 509 kts | 89° |
| 2026-05-05 18:22 | 53.02351 | -16.68471 | 40184 ft | 509 kts | 89° |
| 2026-05-05 18:23 | 53.02265 | -16.56707 | 40181 ft | 509 kts | 89° |
| 2026-05-05 18:23 | 53.02167 | -16.44944 | 40191 ft | 509 kts | 89° |
| 2026-05-05 18:24 | 53.02058 | -16.33192 | 40180 ft | 509 kts | 89° |
| 2026-05-05 18:24 | 53.01937 | -16.21427 | 40178 ft | 509 kts | 90° |
| 2026-05-05 18:25 | 53.01804 | -16.09661 | 40181 ft | 509 kts | 90° |
| 2026-05-05 18:25 | 53.01660 | -15.97897 | 40176 ft | 509 kts | 90° |
| 2026-05-05 18:26 | 53.01504 | -15.86135 | 40176 ft | 509 kts | 90° |
| 2026-05-05 18:26 | 53.01336 | -15.74373 | 40176 ft | 509 kts | 90° |
| 2026-05-05 18:27 | 53.01157 | -15.62610 | 40172 ft | 509 kts | 90° |
| 2026-05-05 18:27 | 53.00966 | -15.50849 | 40173 ft | 509 kts | 90° |
| 2026-05-05 18:28 | 53.00659 | -15.33222 | 40171 ft | 510 kts | 90° |
| 2026-05-05 18:28 | 53.00439 | -15.21459 | 40170 ft | 510 kts | 91° |
| 2026-05-05 18:29 | 53.00207 | -15.09692 | 40168 ft | 510 kts | 91° |
| 2026-05-05 18:29 | 52.99967 | -14.97923 | 40167 ft | 510 kts | 90° |
| 2026-05-05 18:30 | 52.99943 | -14.86155 | 40178 ft | 510 kts | 88° |
| 2026-05-05 18:30 | 53.00042 | -14.74391 | 40170 ft | 510 kts | 88° |
| 2026-05-05 18:31 | 53.00102 | -14.62626 | 40167 ft | 510 kts | 89° |
| 2026-05-05 18:31 | 53.00118 | -14.50862 | 40162 ft | 509 kts | 89° |
| 2026-05-05 18:32 | 53.00111 | -14.39112 | 40161 ft | 510 kts | 89° |
| 2026-05-05 18:32 | 53.00092 | -14.27348 | 40169 ft | 509 kts | 89° |
| 2026-05-05 18:33 | 53.00063 | -14.15590 | 40148 ft | 509 kts | 89° |
| 2026-05-05 18:33 | 53.00461 | -14.03965 | 40149 ft | 508 kts | 77° |
| 2026-05-05 18:34 | 53.02839 | -13.93035 | 40356 ft | 502 kts | 58° |
| 2026-05-05 18:34 | 53.04619 | -13.88051 | 40483 ft | 501 kts | 56° |
| 2026-05-05 18:34 | 53.06484 | -13.83160 | 40611 ft | 501 kts | 55° |
| 2026-05-05 18:35 | 53.08386 | -13.78313 | 40719 ft | 500 kts | 54° |
| 2026-05-05 18:35 | 53.10299 | -13.73478 | 40833 ft | 500 kts | 54° |
| 2026-05-05 18:35 | 53.12208 | -13.68639 | 40948 ft | 500 kts | 54° |
| 2026-05-05 18:35 | 53.14108 | -13.63788 | 41039 ft | 500 kts | 55° |
| 2026-05-05 18:36 | 53.17882 | -13.54060 | 41153 ft | 501 kts | 55° |
| 2026-05-05 18:36 | 53.21643 | -13.44280 | 41155 ft | 501 kts | 55° |
| 2026-05-05 18:37 | 53.25391 | -13.34486 | 41161 ft | 500 kts | 56° |
| 2026-05-05 18:37 | 53.29134 | -13.24673 | 41159 ft | 501 kts | 56° |
| 2026-05-05 18:38 | 53.32872 | -13.14838 | 41153 ft | 501 kts | 56° |
| 2026-05-05 18:38 | 53.36603 | -13.04985 | 41150 ft | 501 kts | 56° |
| 2026-05-05 18:39 | 53.40325 | -12.95113 | 41161 ft | 501 kts | 56° |
| 2026-05-05 18:39 | 53.44035 | -12.85236 | 41147 ft | 501 kts | 56° |
| 2026-05-05 18:40 | 53.47741 | -12.75331 | 41149 ft | 501 kts | 56° |
| 2026-05-05 18:40 | 53.51439 | -12.65407 | 41150 ft | 501 kts | 56° |
| 2026-05-05 18:41 | 53.55129 | -12.55464 | 41149 ft | 501 kts | 56° |
| 2026-05-05 18:41 | 53.58812 | -12.45504 | 41149 ft | 501 kts | 56° |
| 2026-05-05 18:42 | 53.62461 | -12.35594 | 41148 ft | 501 kts | 56° |
| 2026-05-05 18:42 | 53.66131 | -12.25588 | 41143 ft | 502 kts | 56° |
| 2026-05-05 18:43 | 53.69794 | -12.15560 | 41143 ft | 502 kts | 56° |
| 2026-05-05 18:43 | 53.73445 | -12.05525 | 41145 ft | 502 kts | 57° |
| 2026-05-05 18:44 | 53.77092 | -11.95459 | 41141 ft | 502 kts | 57° |
| 2026-05-05 18:44 | 53.80734 | -11.85370 | 41141 ft | 503 kts | 57° |
| 2026-05-05 18:45 | 53.84367 | -11.75262 | 41132 ft | 502 kts | 57° |
| 2026-05-05 18:45 | 53.87991 | -11.65137 | 41132 ft | 502 kts | 57° |
| 2026-05-05 18:46 | 53.91607 | -11.54994 | 41137 ft | 503 kts | 57° |
| 2026-05-05 18:46 | 53.95214 | -11.44833 | 41137 ft | 503 kts | 57° |
| 2026-05-05 18:47 | 53.98816 | -11.34646 | 41129 ft | 503 kts | 57° |
| 2026-05-05 18:47 | 54.02414 | -11.24429 | 41133 ft | 504 kts | 57° |
| 2026-05-05 18:48 | 54.06000 | -11.14202 | 41130 ft | 504 kts | 57° |
| 2026-05-05 18:48 | 54.09582 | -11.03946 | 41128 ft | 504 kts | 57° |
| 2026-05-05 18:49 | 54.13155 | -10.93671 | 41122 ft | 504 kts | 57° |
| 2026-05-05 18:49 | 54.16720 | -10.83377 | 41128 ft | 504 kts | 58° |
| 2026-05-05 18:50 | 54.20277 | -10.73065 | 41128 ft | 504 kts | 58° |
| 2026-05-05 18:50 | 54.23825 | -10.62734 | 41128 ft | 504 kts | 58° |
| 2026-05-05 18:51 | 54.27365 | -10.52380 | 41115 ft | 504 kts | 58° |
| 2026-05-05 18:51 | 54.30898 | -10.42006 | 41119 ft | 504 kts | 58° |
| 2026-05-05 18:52 | 54.34422 | -10.31612 | 41137 ft | 505 kts | 58° |
| 2026-05-05 18:52 | 54.37912 | -10.21276 | 41115 ft | 505 kts | 58° |
| 2026-05-05 18:53 | 54.41421 | -10.10840 | 41124 ft | 505 kts | 58° |
| 2026-05-05 18:53 | 54.44923 | -10.00382 | 41123 ft | 505 kts | 58° |
| 2026-05-05 18:54 | 54.48415 | -9.89905 | 41124 ft | 505 kts | 58° |
| 2026-05-05 18:54 | 54.51899 | -9.79410 | 41121 ft | 505 kts | 58° |
| 2026-05-05 18:55 | 54.55373 | -9.68898 | 41129 ft | 505 kts | 59° |
| 2026-05-05 18:55 | 54.58840 | -9.58361 | 41124 ft | 505 kts | 59° |
| 2026-05-05 18:56 | 54.62030 | -9.47562 | 41127 ft | 507 kts | 65° |
| 2026-05-05 18:56 | 54.64271 | -9.38208 | 41126 ft | 507 kts | 66° |
| 2026-05-05 18:57 | 54.66880 | -9.26877 | 41124 ft | 508 kts | 67° |
| 2026-05-05 18:57 | 54.69466 | -9.15510 | 41121 ft | 508 kts | 67° |
| 2026-05-05 18:58 | 54.72050 | -9.04128 | 41118 ft | 508 kts | 67° |
| 2026-05-05 18:58 | 54.74630 | -8.92733 | 41122 ft | 508 kts | 67° |
| 2026-05-05 18:59 | 54.77198 | -8.81337 | 41118 ft | 509 kts | 67° |
| 2026-05-05 18:59 | 54.79758 | -8.69913 | 41117 ft | 509 kts | 67° |
| 2026-05-05 19:00 | 54.82307 | -8.58473 | 41121 ft | 509 kts | 68° |
| 2026-05-05 19:00 | 54.84846 | -8.47016 | 41118 ft | 509 kts | 68° |
| 2026-05-05 19:01 | 54.87374 | -8.35544 | 41126 ft | 509 kts | 68° |
| 2026-05-05 19:01 | 54.89891 | -8.24058 | 41127 ft | 509 kts | 68° |
| 2026-05-05 19:02 | 54.92398 | -8.12558 | 41132 ft | 509 kts | 68° |
| 2026-05-05 19:02 | 54.94895 | -8.01036 | 41124 ft | 509 kts | 68° |
| 2026-05-05 19:03 | 54.97380 | -7.89506 | 41120 ft | 509 kts | 68° |
| 2026-05-05 19:03 | 54.99856 | -7.77950 | 41115 ft | 509 kts | 68° |
| 2026-05-05 19:04 | 55.02322 | -7.66380 | 41114 ft | 509 kts | 69° |
| 2026-05-05 19:04 | 55.04779 | -7.54785 | 41110 ft | 510 kts | 69° |
| 2026-05-05 19:05 | 55.07228 | -7.43157 | 41123 ft | 511 kts | 69° |
| 2026-05-05 19:05 | 55.09668 | -7.31511 | 41128 ft | 511 kts | 69° |
| 2026-05-05 19:06 | 55.12096 | -7.19849 | 41129 ft | 511 kts | 69° |
| 2026-05-05 19:06 | 55.14514 | -7.08174 | 41127 ft | 511 kts | 69° |
| 2026-05-05 19:07 | 55.16916 | -6.96504 | 41119 ft | 510 kts | 69° |
| 2026-05-05 19:07 | 55.19309 | -6.84810 | 41112 ft | 510 kts | 69° |
| 2026-05-05 19:08 | 55.21691 | -6.73103 | 41097 ft | 510 kts | 69° |
| 2026-05-05 19:08 | 55.24061 | -6.61381 | 41086 ft | 510 kts | 69° |
| 2026-05-05 19:09 | 55.26406 | -6.49715 | 41083 ft | 511 kts | 70° |
| 2026-05-05 19:09 | 55.28759 | -6.37944 | 41075 ft | 511 kts | 70° |
| 2026-05-05 19:10 | 55.31101 | -6.26156 | 41072 ft | 511 kts | 70° |
| 2026-05-05 19:10 | 55.33431 | -6.14355 | 41069 ft | 511 kts | 70° |
| 2026-05-05 19:11 | 55.35747 | -6.02553 | 41070 ft | 511 kts | 70° |
| 2026-05-05 19:11 | 55.38055 | -5.90724 | 41064 ft | 511 kts | 70° |
| 2026-05-05 19:12 | 55.40352 | -5.78876 | 41061 ft | 512 kts | 70° |
| 2026-05-05 19:12 | 55.42639 | -5.67007 | 41061 ft | 512 kts | 70° |
| 2026-05-05 19:13 | 55.44913 | -5.55119 | 41054 ft | 512 kts | 70° |
| 2026-05-05 19:13 | 55.47169 | -5.43209 | 41062 ft | 512 kts | 71° |
| 2026-05-05 19:14 | 55.49414 | -5.31280 | 41059 ft | 513 kts | 71° |
| 2026-05-05 19:14 | 55.51649 | -5.19340 | 41059 ft | 512 kts | 71° |
| 2026-05-05 19:15 | 55.53870 | -5.07401 | 41062 ft | 512 kts | 71° |
| 2026-05-05 19:15 | 55.56083 | -4.95432 | 41062 ft | 513 kts | 71° |
| 2026-05-05 19:16 | 55.58259 | -4.83429 | 41060 ft | 513 kts | 74° |
| 2026-05-05 19:16 | 55.59139 | -4.70957 | 41073 ft | 513 kts | 93° |
| 2026-05-05 19:17 | 55.58552 | -4.58389 | 41077 ft | 514 kts | 96° |
| 2026-05-05 19:17 | 55.57719 | -4.45931 | 41084 ft | 514 kts | 97° |
| 2026-05-05 19:18 | 55.56850 | -4.33398 | 41084 ft | 514 kts | 97° |
| 2026-05-05 19:18 | 55.55996 | -4.20867 | 41084 ft | 514 kts | 97° |
| 2026-05-05 19:19 | 55.55144 | -4.08353 | 41085 ft | 514 kts | 97° |
| 2026-05-05 19:19 | 55.54282 | -3.95832 | 41089 ft | 514 kts | 97° |
| 2026-05-05 19:20 | 55.53407 | -3.83318 | 41090 ft | 513 kts | 97° |
| 2026-05-05 19:20 | 55.52518 | -3.70811 | 41096 ft | 513 kts | 98° |
| 2026-05-05 19:21 | 55.51616 | -3.58309 | 41093 ft | 513 kts | 98° |
| 2026-05-05 19:21 | 55.50701 | -3.45813 | 41096 ft | 513 kts | 98° |
| 2026-05-05 19:22 | 55.49965 | -3.33287 | 41102 ft | 514 kts | 92° |
| 2026-05-05 19:22 | 55.49775 | -3.20686 | 41102 ft | 514 kts | 91° |
| 2026-05-05 19:23 | 55.49664 | -3.08090 | 41102 ft | 514 kts | 91° |
| 2026-05-05 19:23 | 55.49549 | -2.95477 | 41102 ft | 514 kts | 91° |
| 2026-05-05 19:24 | 55.49412 | -2.82866 | 41099 ft | 514 kts | 91° |
| 2026-05-05 19:24 | 55.49258 | -2.70260 | 41095 ft | 514 kts | 92° |
| 2026-05-05 19:25 | 55.49088 | -2.57668 | 41095 ft | 513 kts | 92° |
| 2026-05-05 19:25 | 55.48907 | -2.45085 | 41095 ft | 513 kts | 92° |
| 2026-05-05 19:26 | 55.48712 | -2.32504 | 41098 ft | 513 kts | 92° |
| 2026-05-05 19:26 | 55.48505 | -2.19923 | 41097 ft | 513 kts | 92° |
| 2026-05-05 19:27 | 55.48285 | -2.07347 | 41100 ft | 513 kts | 92° |
| 2026-05-05 19:27 | 55.48053 | -1.94788 | 41099 ft | 513 kts | 92° |
| 2026-05-05 19:28 | 55.47806 | -1.82217 | 41102 ft | 513 kts | 92° |
| 2026-05-05 19:28 | 55.47548 | -1.69650 | 41102 ft | 513 kts | 92° |
| 2026-05-05 19:29 | 55.47276 | -1.57081 | 41103 ft | 513 kts | 93° |
| 2026-05-05 19:29 | 55.46991 | -1.44498 | 41101 ft | 514 kts | 93° |
| 2026-05-05 19:30 | 55.46694 | -1.31910 | 41098 ft | 514 kts | 93° |
| 2026-05-05 19:30 | 55.46383 | -1.19322 | 41091 ft | 514 kts | 93° |
| 2026-05-05 19:31 | 55.45730 | -1.06803 | 41080 ft | 512 kts | 104° |
| 2026-05-05 19:31 | 55.43176 | -0.95233 | 41077 ft | 507 kts | 124° |
| 2026-05-05 19:32 | 55.39317 | -0.84869 | 41072 ft | 506 kts | 127° |
| 2026-05-05 19:32 | 55.35257 | -0.74743 | 41067 ft | 507 kts | 127° |
| 2026-05-05 19:33 | 55.31932 | -0.63918 | 41067 ft | 510 kts | 110° |
| 2026-05-05 19:33 | 55.30736 | -0.51669 | 41067 ft | 513 kts | 89° |
| 2026-05-05 19:34 | 55.31082 | -0.45445 | 41067 ft | 513 kts | 78° |
| 2026-05-05 19:34 | 55.31933 | -0.39361 | 41063 ft | 514 kts | 74° |
| 2026-05-05 19:35 | 55.35037 | -0.21309 | 41061 ft | 515 kts | 72° |
| 2026-05-05 19:35 | 55.37132 | -0.09269 | 41067 ft | 515 kts | 73° |
| 2026-05-05 19:36 | 55.39173 | 0.02788 | 41058 ft | 515 kts | 73° |
| 2026-05-05 19:36 | 55.41186 | 0.14874 | 41062 ft | 514 kts | 73° |
| 2026-05-05 19:37 | 55.43184 | 0.26968 | 41055 ft | 514 kts | 73° |
| 2026-05-05 19:37 | 55.45171 | 0.39074 | 41056 ft | 514 kts | 74° |
| 2026-05-05 19:38 | 55.47148 | 0.51191 | 41057 ft | 514 kts | 74° |
| 2026-05-05 19:38 | 55.49113 | 0.63323 | 41056 ft | 515 kts | 74° |
| 2026-05-05 19:39 | 55.51068 | 0.75475 | 41053 ft | 515 kts | 74° |
| 2026-05-05 19:39 | 55.53010 | 0.87643 | 41057 ft | 515 kts | 74° |
| 2026-05-05 19:40 | 55.54942 | 0.99825 | 41045 ft | 516 kts | 74° |
| 2026-05-05 19:40 | 55.56865 | 1.12042 | 41036 ft | 516 kts | 75° |
| 2026-05-05 19:41 | 55.58777 | 1.24280 | 41045 ft | 517 kts | 75° |
| 2026-05-05 19:41 | 55.60678 | 1.36541 | 41040 ft | 517 kts | 75° |
| 2026-05-05 19:42 | 55.62568 | 1.48817 | 41042 ft | 517 kts | 75° |
| 2026-05-05 19:42 | 55.64130 | 1.59032 | 41040 ft | 517 kts | 75° |
| 2026-05-05 19:43 | 55.65995 | 1.71313 | 41038 ft | 517 kts | 75° |
| 2026-05-05 19:43 | 55.68151 | 1.85632 | 41034 ft | 517 kts | 75° |
| 2026-05-05 19:44 | 55.69693 | 1.95948 | 41034 ft | 517 kts | 75° |
| 2026-05-05 19:44 | 55.71524 | 2.08284 | 41029 ft | 517 kts | 75° |
| 2026-05-05 19:45 | 55.73343 | 2.20630 | 41029 ft | 517 kts | 75° |
| 2026-05-05 19:45 | 55.75149 | 2.32993 | 41026 ft | 518 kts | 76° |
| 2026-05-05 19:46 | 55.76946 | 2.45384 | 41032 ft | 518 kts | 76° |
| 2026-05-05 19:46 | 55.78733 | 2.57808 | 41026 ft | 519 kts | 76° |
| 2026-05-05 19:47 | 55.80508 | 2.70241 | 41022 ft | 519 kts | 76° |
| 2026-05-05 19:47 | 55.82272 | 2.82699 | 41015 ft | 519 kts | 76° |
| 2026-05-05 19:48 | 55.84024 | 2.95176 | 41019 ft | 520 kts | 76° |
| 2026-05-05 19:48 | 55.85765 | 3.07673 | 41017 ft | 520 kts | 76° |
| 2026-05-05 19:49 | 55.87482 | 3.20099 | 41002 ft | 520 kts | 76° |
| 2026-05-05 19:49 | 55.89198 | 3.32619 | 41004 ft | 520 kts | 76° |
| 2026-05-05 19:50 | 55.90896 | 3.45151 | 40992 ft | 520 kts | 77° |
| 2026-05-05 19:50 | 55.91718 | 3.57932 | 40993 ft | 519 kts | 88° |
| 2026-05-05 19:51 | 55.92033 | 3.70782 | 40999 ft | 519 kts | 89° |
| 2026-05-05 19:51 | 55.92260 | 3.83657 | 40999 ft | 519 kts | 89° |
| 2026-05-05 19:52 | 55.92478 | 3.96534 | 40994 ft | 519 kts | 89° |
| 2026-05-05 19:52 | 55.92698 | 4.09418 | 41007 ft | 520 kts | 89° |
| 2026-05-05 19:53 | 55.92909 | 4.22311 | 41007 ft | 520 kts | 89° |
| 2026-05-05 19:53 | 55.93108 | 4.35208 | 41004 ft | 520 kts | 89° |
| 2026-05-05 19:54 | 55.93292 | 4.48105 | 41008 ft | 520 kts | 89° |
| 2026-05-05 19:54 | 55.93463 | 4.61007 | 41001 ft | 521 kts | 90° |
| 2026-05-05 19:55 | 55.93621 | 4.73919 | 41004 ft | 521 kts | 90° |
| 2026-05-05 19:55 | 55.93765 | 4.86893 | 41000 ft | 526 kts | 90° |
| 2026-05-05 19:56 | 55.93897 | 4.99990 | 40997 ft | 530 kts | 90° |
| 2026-05-05 19:56 | 55.94074 | 5.13163 | 40998 ft | 532 kts | 89° |
| 2026-05-05 19:57 | 55.94258 | 5.26283 | 40996 ft | 533 kts | 90° |
| 2026-05-05 19:57 | 55.94424 | 5.39492 | 40996 ft | 532 kts | 90° |
| 2026-05-05 19:58 | 55.94575 | 5.52699 | 40996 ft | 532 kts | 90° |
| 2026-05-05 19:58 | 55.94711 | 5.65890 | 40987 ft | 532 kts | 90° |
| 2026-05-05 19:59 | 55.94832 | 5.79099 | 40990 ft | 533 kts | 90° |
| 2026-05-05 19:59 | 55.94940 | 5.92313 | 40991 ft | 533 kts | 90° |
| 2026-05-05 20:00 | 55.95033 | 6.05528 | 40991 ft | 533 kts | 90° |
| 2026-05-05 20:00 | 55.95112 | 6.18746 | 40996 ft | 533 kts | 90° |
| 2026-05-05 20:01 | 55.95177 | 6.31964 | 40993 ft | 533 kts | 91° |
| 2026-05-05 20:01 | 55.95228 | 6.45173 | 40996 ft | 532 kts | 91° |
| 2026-05-05 20:02 | 55.95265 | 6.58374 | 40994 ft | 532 kts | 91° |
| 2026-05-05 20:02 | 55.95288 | 6.71574 | 40989 ft | 532 kts | 91° |
| 2026-05-05 20:03 | 55.95296 | 6.84760 | 40988 ft | 532 kts | 91° |
| 2026-05-05 20:03 | 55.95290 | 6.97971 | 40991 ft | 533 kts | 91° |
| 2026-05-05 20:04 | 55.95271 | 7.11190 | 40992 ft | 533 kts | 91° |
| 2026-05-05 20:04 | 55.95237 | 7.24408 | 40983 ft | 533 kts | 91° |
| 2026-05-05 20:05 | 55.95189 | 7.37625 | 40976 ft | 533 kts | 92° |
| 2026-05-05 20:05 | 55.95127 | 7.50846 | 40983 ft | 533 kts | 92° |
| 2026-05-05 20:06 | 55.95051 | 7.63987 | 40980 ft | 533 kts | 92° |
| 2026-05-05 20:06 | 55.94960 | 7.77305 | 40977 ft | 533 kts | 92° |
| 2026-05-05 20:07 | 55.94856 | 7.90430 | 40977 ft | 533 kts | 92° |
| 2026-05-05 20:07 | 55.94737 | 8.03660 | 40974 ft | 533 kts | 92° |
| 2026-05-05 20:08 | 55.94604 | 8.16899 | 40973 ft | 534 kts | 92° |
| 2026-05-05 20:08 | 55.94457 | 8.30141 | 40975 ft | 534 kts | 92° |
| 2026-05-05 20:09 | 55.94295 | 8.43382 | 40970 ft | 534 kts | 92° |
| 2026-05-05 20:09 | 55.94119 | 8.56615 | 40969 ft | 534 kts | 93° |
| 2026-05-05 20:10 | 55.93929 | 8.69861 | 40970 ft | 534 kts | 93° |
| 2026-05-05 20:10 | 55.93725 | 8.83118 | 40967 ft | 534 kts | 93° |
| 2026-05-05 20:10 | 55.93618 | 8.89710 | 40728 ft | 528 kts | 93° |
| 2026-05-05 20:11 | 55.93509 | 8.96266 | 39934 ft | 531 kts | 93° |
| 2026-05-05 20:11 | 55.93394 | 9.02884 | 38996 ft | 536 kts | 94° |
| 2026-05-05 20:11 | 55.93275 | 9.09532 | 37986 ft | 539 kts | 94° |
| 2026-05-05 20:11 | 55.93152 | 9.16208 | 37034 ft | 538 kts | 94° |
| 2026-05-05 20:12 | 55.93027 | 9.22865 | 36207 ft | 536 kts | 94° |
| 2026-05-05 20:12 | 55.92898 | 9.29498 | 35481 ft | 534 kts | 94° |
| 2026-05-05 20:12 | 55.92766 | 9.36105 | 34725 ft | 534 kts | 94° |
| 2026-05-05 20:12 | 55.92630 | 9.42715 | 33915 ft | 533 kts | 94° |
| 2026-05-05 20:13 | 55.92491 | 9.49311 | 32990 ft | 533 kts | 94° |
| 2026-05-05 20:13 | 55.92348 | 9.55942 | 32125 ft | 536 kts | 94° |
| 2026-05-05 20:13 | 55.92199 | 9.62626 | 31243 ft | 541 kts | 95° |
| 2026-05-05 20:13 | 55.92046 | 9.69355 | 30338 ft | 546 kts | 95° |
| 2026-05-05 20:14 | 55.91888 | 9.76151 | 29295 ft | 550 kts | 94° |
| 2026-05-05 20:14 | 55.91727 | 9.82942 | 28401 ft | 546 kts | 94° |
| 2026-05-05 20:14 | 55.91564 | 9.89665 | 27720 ft | 539 kts | 94° |
| 2026-05-05 20:14 | 55.91400 | 9.96295 | 27021 ft | 533 kts | 94° |
| 2026-05-05 20:15 | 55.91233 | 10.02861 | 26310 ft | 528 kts | 94° |
| 2026-05-05 20:15 | 55.91064 | 10.09370 | 25618 ft | 523 kts | 94° |
| 2026-05-05 20:15 | 55.90893 | 10.15826 | 24946 ft | 519 kts | 94° |
| 2026-05-05 20:15 | 55.90721 | 10.22216 | 24274 ft | 514 kts | 94° |
| 2026-05-05 20:16 | 55.90547 | 10.28528 | 23820 ft | 506 kts | 94° |
| 2026-05-05 20:16 | 55.90171 | 10.34635 | 23748 ft | 485 kts | 103° |
| 2026-05-05 20:16 | 55.89333 | 10.40337 | 23507 ft | 470 kts | 111° |
| 2026-05-05 20:16 | 55.88285 | 10.45839 | 22506 ft | 472 kts | 112° |
| 2026-05-05 20:17 | 55.87156 | 10.51372 | 21501 ft | 477 kts | 113° |
| 2026-05-05 20:17 | 55.86010 | 10.56890 | 20798 ft | 473 kts | 113° |
| 2026-05-05 20:17 | 55.84869 | 10.62353 | 20136 ft | 469 kts | 113° |
| 2026-05-05 20:17 | 55.83734 | 10.67761 | 19465 ft | 464 kts | 113° |
| 2026-05-05 20:18 | 55.82606 | 10.73115 | 18816 ft | 460 kts | 113° |
| 2026-05-05 20:18 | 55.81500 | 10.78352 | 18158 ft | 457 kts | 113° |
| 2026-05-05 20:18 | 55.80387 | 10.83602 | 17432 ft | 453 kts | 113° |
| 2026-05-05 20:18 | 55.79282 | 10.88805 | 16772 ft | 447 kts | 113° |
| 2026-05-05 20:19 | 55.78187 | 10.93944 | 16098 ft | 442 kts | 113° |
| 2026-05-05 20:19 | 55.77102 | 10.99023 | 15440 ft | 437 kts | 113° |
| 2026-05-05 20:19 | 55.76026 | 11.04045 | 14769 ft | 433 kts | 113° |
| 2026-05-05 20:19 | 55.74960 | 11.09014 | 14109 ft | 429 kts | 113° |
| 2026-05-05 20:20 | 55.73901 | 11.13932 | 13403 ft | 424 kts | 112° |
| 2026-05-05 20:20 | 55.72852 | 11.18796 | 12726 ft | 419 kts | 112° |
| 2026-05-05 20:20 | 55.71817 | 11.23584 | 12089 ft | 412 kts | 112° |
| 2026-05-05 20:20 | 55.70795 | 11.28297 | 11447 ft | 406 kts | 112° |
| 2026-05-05 20:21 | 55.69792 | 11.32916 | 11115 ft | 393 kts | 112° |
| 2026-05-05 20:21 | 55.68833 | 11.37329 | 10992 ft | 374 kts | 112° |
| 2026-05-05 20:21 | 55.67918 | 11.41528 | 10893 ft | 357 kts | 112° |
| 2026-05-05 20:21 | 55.67042 | 11.45537 | 10772 ft | 341 kts | 112° |
| 2026-05-05 20:22 | 55.66202 | 11.49374 | 10621 ft | 327 kts | 112° |
| 2026-05-05 20:22 | 55.65393 | 11.53059 | 10481 ft | 314 kts | 112° |
| 2026-05-05 20:22 | 55.64616 | 11.56598 | 10298 ft | 304 kts | 112° |
| 2026-05-05 20:22 | 55.63852 | 11.60065 | 9931 ft | 301 kts | 112° |
| 2026-05-05 20:23 | 55.63092 | 11.63504 | 9589 ft | 300 kts | 112° |
| 2026-05-05 20:23 | 55.62334 | 11.66931 | 9267 ft | 298 kts | 112° |
| 2026-05-05 20:23 | 55.61582 | 11.70329 | 8941 ft | 296 kts | 112° |
| 2026-05-05 20:23 | 55.60832 | 11.73705 | 8581 ft | 293 kts | 112° |
| 2026-05-05 20:24 | 55.60085 | 11.77030 | 8212 ft | 289 kts | 112° |
| 2026-05-05 20:24 | 55.59344 | 11.80311 | 7816 ft | 286 kts | 112° |
| 2026-05-05 20:24 | 55.58602 | 11.83547 | 7459 ft | 282 kts | 112° |
| 2026-05-05 20:24 | 55.57861 | 11.86737 | 7083 ft | 280 kts | 112° |
| 2026-05-05 20:25 | 55.57115 | 11.89895 | 6711 ft | 277 kts | 112° |
| 2026-05-05 20:25 | 55.56366 | 11.93006 | 6349 ft | 274 kts | 112° |
| 2026-05-05 20:25 | 55.55616 | 11.96074 | 5965 ft | 271 kts | 112° |
| 2026-05-05 20:25 | 55.54867 | 11.99107 | 5549 ft | 269 kts | 112° |
| 2026-05-05 20:26 | 55.54121 | 12.02128 | 5146 ft | 267 kts | 112° |
| 2026-05-05 20:26 | 55.53374 | 12.05125 | 4740 ft | 266 kts | 113° |
| 2026-05-05 20:26 | 55.52325 | 12.07795 | 4297 ft | 267 kts | 136° |
| 2026-05-05 20:26 | 55.50835 | 12.09743 | 3905 ft | 266 kts | 145° |
| 2026-05-05 20:27 | 55.49269 | 12.11472 | 3472 ft | 265 kts | 146° |
| 2026-05-05 20:27 | 55.47695 | 12.13155 | 3103 ft | 263 kts | 147° |
| 2026-05-05 20:27 | 55.46124 | 12.14817 | 3004 ft | 264 kts | 147° |
| 2026-05-05 20:27 | 55.44547 | 12.16481 | 2996 ft | 264 kts | 147° |
| 2026-05-05 20:28 | 55.42970 | 12.18145 | 3000 ft | 264 kts | 147° |
| 2026-05-05 20:28 | 55.41393 | 12.19806 | 3000 ft | 264 kts | 147° |
| 2026-05-05 20:28 | 55.39816 | 12.21466 | 3000 ft | 264 kts | 147° |
| 2026-05-05 20:28 | 55.38455 | 12.23532 | 3001 ft | 252 kts | 120° |
| 2026-05-05 20:29 | 55.38050 | 12.25343 | 3004 ft | 234 kts | 95° |
| 2026-05-05 20:29 | 55.38612 | 12.28636 | 3015 ft | 212 kts | 49° |
| 2026-05-05 20:29 | 55.39682 | 12.30429 | 3002 ft | 214 kts | 39° |
| 2026-05-05 20:29 | 55.40828 | 12.32106 | 2996 ft | 214 kts | 40° |
| 2026-05-05 20:30 | 55.41933 | 12.33771 | 3000 ft | 202 kts | 40° |
| 2026-05-05 20:30 | 55.42951 | 12.35313 | 3018 ft | 183 kts | 40° |
| 2026-05-05 20:30 | 55.43884 | 12.36732 | 3021 ft | 174 kts | 40° |
| 2026-05-05 20:30 | 55.44501 | 12.37674 | 3010 ft | 174 kts | 40° |
| 2026-05-05 20:31 | 55.45417 | 12.39081 | 3006 ft | 175 kts | 40° |
| 2026-05-05 20:31 | 55.46329 | 12.40485 | 2997 ft | 171 kts | 40° |
| 2026-05-05 20:31 | 55.47174 | 12.41789 | 3011 ft | 156 kts | 40° |
| 2026-05-05 20:31 | 55.47986 | 12.43037 | 3003 ft | 155 kts | 40° |
| 2026-05-05 20:32 | 55.48794 | 12.44282 | 2829 ft | 154 kts | 40° |
| 2026-05-05 20:32 | 55.49600 | 12.45522 | 2592 ft | 153 kts | 40° |
| 2026-05-05 20:32 | 55.50391 | 12.46739 | 2399 ft | 153 kts | 40° |
| 2026-05-05 20:32 | 55.51190 | 12.47967 | 2176 ft | 152 kts | 40° |
| 2026-05-05 20:33 | 55.51976 | 12.49178 | 1962 ft | 148 kts | 40° |
| 2026-05-05 20:33 | 55.52736 | 12.50348 | 1770 ft | 142 kts | 40° |
| 2026-05-05 20:33 | 55.53464 | 12.51470 | 1574 ft | 136 kts | 39° |
| 2026-05-05 20:33 | 55.54159 | 12.52539 | 1398 ft | 130 kts | 40° |
| 2026-05-05 20:34 | 55.54824 | 12.53566 | 1213 ft | 126 kts | 40° |
| 2026-05-05 20:34 | 55.55483 | 12.54583 | 1044 ft | 126 kts | 39° |
| 2026-05-05 20:34 | 55.56145 | 12.55604 | 849 ft | 128 kts | 39° |
| 2026-05-05 20:34 | 55.56819 | 12.56645 | 676 ft | 129 kts | 39° |
| 2026-05-05 20:35 | 55.57501 | 12.57699 | 490 ft | 130 kts | 38° |
| 2026-05-05 20:35 | 55.58186 | 12.58760 | 320 ft | 131 kts | 38° |
| 2026-05-05 20:35 | 55.58863 | 12.59810 | 141 ft | 130 kts | 38° |
| 2026-05-05 20:35 | 55.59549 | 12.60871 | 37 ft | 128 kts | 37° |
| 2026-05-05 20:36 | 55.60172 | 12.61821 | 28 ft | 107 kts | 42° |
| 2026-05-05 20:36 | 55.60673 | 12.62601 | 30 ft | 86 kts | 42° |
| 2026-05-05 20:36 | 55.61071 | 12.63214 | 27 ft | 61 kts | 41° |
| 2026-05-05 20:36 | 55.61335 | 12.63633 | 32 ft | 42 kts | 42° |
| 2026-05-05 20:37 | 55.61521 | 12.63922 | 28 ft | 33 kts | 41° |
| 2026-05-05 20:37 | 55.61642 | 12.64239 | 27 ft | 32 kts | 82° |
| 2026-05-05 20:37 | 55.61685 | 12.64569 | 26 ft | 23 kts | 48° |
| 2026-05-05 20:37 | 55.61814 | 12.64725 | 26 ft | 23 kts | 33° |
| 2026-05-05 20:38 | 55.61953 | 12.64886 | 25 ft | 25 kts | 33° |
| 2026-05-05 20:38 | 55.62102 | 12.65058 | 29 ft | 26 kts | 33° |
| 2026-05-05 20:38 | 55.62268 | 12.65200 | 26 ft | 27 kts | 6° |
| 2026-05-05 20:38 | 55.62396 | 12.65211 | 25 ft | 11 kts | 351° |
| 2026-05-05 20:39 | 55.62428 | 12.65117 | 24 ft | 10 kts | 273° |
| 2026-05-05 20:39 | 55.62428 | 12.65074 | 23 ft | 1 kts | 270° |
| 2026-05-05 20:39 | 55.62428 | 12.65068 | 23 ft | 0 kts | 270° |